Time;durP1;ratioP1;P1;durP2;ratioP2;P2;SDS_P1;SDS_P2;PMS_P1;PMS_P2;Temp;Humidity;BMP_temperature;BMP_pressure;BME280_temperature;BME280_humidity;BME280_pressure;Samples;Min_cycle;Max_cycle;Signal;HPM_P1;HPM_P2
2022/01/07 00:00:42;;;;;;;6.75;3.58;;;18.00;99.90;;;;;;4196102;28;20223;-74
2022/01/07 00:02:47;;;;;;;5.07;3.28;;;18.00;99.90;;;;;;4196035;28;20675;-74
2022/01/07 00:04:49;;;;;;;4.97;3.22;;;18.00;99.80;;;;;;4195819;28;20257;-74
2022/01/07 00:06:51;;;;;;;5.10;3.20;;;18.00;99.70;;;;;;4195868;28;20215;-74
2022/01/07 00:08:54;;;;;;;5.22;3.35;;;18.10;99.80;;;;;;4194210;28;20226;-74
2022/01/07 00:10:57;;;;;;;3.95;2.97;;;18.00;99.80;;;;;;4195737;28;20223;-74
2022/01/07 00:12:59;;;;;;;8.18;3.90;;;18.00;99.70;;;;;;4195818;28;20237;-74
2022/01/07 00:15:03;;;;;;;4.22;3.40;;;18.00;99.80;;;;;;4195974;28;20312;-74
2022/01/07 00:17:05;;;;;;;4.15;3.00;;;18.00;99.90;;;;;;4212217;28;20242;-74
2022/01/07 00:19:09;;;;;;;4.63;3.13;;;18.00;99.60;;;;;;4211969;28;20260;-74
2022/01/07 00:21:12;;;;;;;7.53;3.55;;;18.00;99.70;;;;;;4203363;28;20212;-73
2022/01/07 00:23:14;;;;;;;6.60;3.40;;;18.00;99.60;;;;;;4197366;28;20210;-74
2022/01/07 00:25:17;;;;;;;7.70;3.50;;;18.00;99.60;;;;;;4208404;28;20264;-74
2022/01/07 00:27:20;;;;;;;4.53;2.80;;;18.00;99.60;;;;;;4195217;28;20207;-74
2022/01/07 00:29:22;;;;;;;6.65;3.40;;;18.00;99.70;;;;;;4195487;28;20218;-74
2022/01/07 00:31:24;;;;;;;4.55;3.03;;;17.90;99.50;;;;;;4195031;28;20284;-74
2022/01/07 00:33:27;;;;;;;4.65;3.40;;;17.90;99.60;;;;;;4195096;28;20642;-74
2022/01/07 00:35:30;;;;;;;6.00;3.30;;;17.90;99.60;;;;;;4195037;28;20292;-74
2022/01/07 00:37:33;;;;;;;5.13;3.05;;;17.90;99.70;;;;;;4194879;28;20239;-74
2022/01/07 00:39:35;;;;;;;4.57;3.00;;;17.90;99.50;;;;;;4211677;28;20284;-74
2022/01/07 00:41:37;;;;;;;7.07;2.97;;;17.90;99.50;;;;;;4212140;28;20957;-74
2022/01/07 00:43:40;;;;;;;5.20;2.88;;;17.90;99.60;;;;;;4197220;28;20631;-74
2022/01/07 00:45:42;;;;;;;5.35;2.95;;;17.90;99.60;;;;;;4195155;28;20214;-74
2022/01/07 00:47:45;;;;;;;4.57;2.75;;;17.90;99.50;;;;;;4195238;28;20269;-74
2022/01/07 00:49:47;;;;;;;6.28;3.03;;;17.90;99.50;;;;;;4195353;28;20241;-74
2022/01/07 00:51:51;;;;;;;4.72;2.85;;;17.90;99.60;;;;;;4195197;28;20211;-74
2022/01/07 00:53:54;;;;;;;5.85;3.05;;;17.90;99.50;;;;;;4195318;28;20227;-74
2022/01/07 00:55:56;;;;;;;4.93;2.72;;;17.90;99.50;;;;;;4195280;28;20272;-74
2022/01/07 00:57:59;;;;;;;5.75;3.08;;;17.80;99.50;;;;;;4194986;28;20288;-74
2022/01/07 01:00:01;;;;;;;6.00;2.80;;;17.80;99.40;;;;;;4193937;28;20218;-74
2022/01/07 01:02:04;;;;;;;4.97;2.63;;;17.90;99.40;;;;;;4194827;28;20215;-74
2022/01/07 01:04:06;;;;;;;4.57;2.80;;;17.90;99.40;;;;;;4195032;28;20223;-74
2022/01/07 01:06:09;;;;;;;4.80;2.80;;;17.80;99.40;;;;;;4195094;28;20256;-74
2022/01/07 01:08:12;;;;;;;5.75;2.88;;;17.80;99.40;;;;;;4195351;28;20233;-74
2022/01/07 01:10:17;;;;;;;6.00;3.03;;;17.90;99.40;;;;;;4195147;28;20261;-74
2022/01/07 01:12:20;;;;;;;5.57;2.78;;;17.90;99.40;;;;;;4194943;28;20215;-74
2022/01/07 01:14:22;;;;;;;4.15;2.85;;;17.90;99.40;;;;;;4194940;28;20215;-74
2022/01/07 01:16:24;;;;;;;5.80;2.70;;;17.80;99.40;;;;;;4202436;28;20219;-74
2022/01/07 01:18:26;;;;;;;4.28;2.60;;;17.80;99.40;;;;;;4195172;28;20243;-74
2022/01/07 01:20:31;;;;;;;5.82;2.90;;;17.80;99.50;;;;;;4192435;28;20223;-74
2022/01/07 01:22:34;;;;;;;3.50;2.53;;;17.80;99.40;;;;;;4194654;28;20352;-74
2022/01/07 01:24:37;;;;;;;3.55;2.53;;;17.80;99.40;;;;;;4195088;28;20211;-74
2022/01/07 01:26:40;;;;;;;4.68;2.38;;;17.80;99.50;;;;;;4194625;28;20679;-74
2022/01/07 01:28:42;;;;;;;5.78;3.38;;;17.80;99.40;;;;;;4194805;28;20261;-74
2022/01/07 01:30:44;;;;;;;4.03;2.65;;;17.80;99.40;;;;;;4192344;28;20235;-74
2022/01/07 01:32:47;;;;;;;3.83;2.53;;;17.80;99.40;;;;;;4194136;28;20261;-74
2022/01/07 01:34:50;;;;;;;5.38;2.70;;;17.80;99.80;;;;;;4193349;28;20218;-74
2022/01/07 01:36:52;;;;;;;5.55;2.85;;;17.80;99.60;;;;;;4195117;28;20219;-74
2022/01/07 01:38:54;;;;;;;4.05;2.55;;;17.80;99.50;;;;;;4196727;28;20240;-74
2022/01/07 01:40:58;;;;;;;4.13;2.75;;;17.70;99.50;;;;;;4197967;28;20204;-74
2022/01/07 01:43:01;;;;;;;5.25;2.90;;;17.70;99.50;;;;;;4197622;28;20261;-74
2022/01/07 01:45:04;;;;;;;4.50;2.80;;;17.70;99.50;;;;;;4197583;28;20261;-74
2022/01/07 01:47:07;;;;;;;4.43;2.80;;;17.70;99.50;;;;;;4197416;28;20272;-74
2022/01/07 01:49:09;;;;;;;4.53;2.60;;;17.70;99.50;;;;;;4196930;28;20219;-74
2022/01/07 01:51:12;;;;;;;6.68;3.03;;;17.70;99.60;;;;;;4191062;28;20220;-74
2022/01/07 01:53:16;;;;;;;4.70;2.92;;;17.70;99.90;;;;;;4197421;28;20227;-74
2022/01/07 01:55:19;;;;;;;5.40;2.80;;;17.70;99.60;;;;;;4197362;28;20219;-73
2022/01/07 01:57:23;;;;;;;5.10;2.63;;;17.70;99.60;;;;;;4197070;28;20241;-74
2022/01/07 01:59:26;;;;;;;5.70;2.70;;;17.70;99.60;;;;;;4197258;28;20210;-74
2022/01/07 02:01:28;;;;;;;5.47;2.58;;;17.70;99.70;;;;;;4197640;28;20639;-74
2022/01/07 02:03:33;;;;;;;4.47;2.40;;;17.70;99.70;;;;;;4197716;28;20928;-74
2022/01/07 02:05:35;;;;;;;6.25;2.97;;;17.70;99.70;;;;;;4214037;28;20595;-74
2022/01/07 02:07:39;;;;;;;5.85;2.75;;;17.70;99.70;;;;;;4206376;28;20250;-74
2022/01/07 02:09:42;;;;;;;4.95;2.90;;;17.60;99.80;;;;;;4195268;28;20219;-74
2022/01/07 02:11:44;;;;;;;4.00;2.30;;;17.70;99.80;;;;;;4199684;28;20212;-74
2022/01/07 02:13:48;;;;;;;4.32;2.55;;;17.60;99.80;;;;;;4197392;28;20280;-74
2022/01/07 02:15:50;;;;;;;5.60;2.83;;;17.60;99.80;;;;;;4203998;28;20359;-74
2022/01/07 02:17:54;;;;;;;3.33;2.47;;;17.60;99.80;;;;;;4213850;28;20283;-74
2022/01/07 02:19:58;;;;;;;5.32;2.90;;;17.60;99.90;;;;;;4207065;28;20257;-74
2022/01/07 02:22:02;;;;;;;5.97;2.70;;;17.60;99.90;;;;;;4196120;28;20268;-74
2022/01/07 02:24:05;;;;;;;4.68;2.50;;;17.60;99.90;;;;;;4205847;28;20273;-74
2022/01/07 02:26:08;;;;;;;5.38;3.00;;;17.60;99.90;;;;;;4194847;28;20269;-74
2022/01/07 02:28:11;;;;;;;3.58;2.38;;;17.60;99.90;;;;;;4196986;28;20261;-74
2022/01/07 02:30:15;;;;;;;4.97;2.65;;;17.60;99.90;;;;;;4196442;28;20281;-74
2022/01/07 02:32:19;;;;;;;4.88;2.70;;;17.50;99.90;;;;;;4196849;28;20223;-74
2022/01/07 02:34:22;;;;;;;3.97;2.42;;;17.50;99.90;;;;;;4196868;28;20207;-74
2022/01/07 02:36:25;;;;;;;4.20;2.58;;;17.60;99.90;;;;;;4197159;28;20268;-74
2022/01/07 02:38:28;;;;;;;4.03;2.35;;;17.60;99.90;;;;;;4196782;28;20537;-74
2022/01/07 02:40:30;;;;;;;4.03;2.15;;;17.50;99.90;;;;;;4196968;28;20733;-74
2022/01/07 02:42:33;;;;;;;6.35;2.75;;;17.50;99.90;;;;;;4193442;28;20659;-74
2022/01/07 02:44:35;;;;;;;4.53;2.38;;;17.50;99.90;;;;;;4197011;28;20268;-73
2022/01/07 02:46:38;;;;;;;3.65;2.50;;;17.60;99.90;;;;;;4196606;28;20261;-74
2022/01/07 02:48:40;;;;;;;3.85;2.40;;;17.50;99.90;;;;;;4213506;28;20264;-74
2022/01/07 02:50:42;;;;;;;3.55;2.25;;;17.50;99.90;;;;;;4213429;28;20241;-74
2022/01/07 02:52:46;;;;;;;5.80;2.58;;;17.50;99.90;;;;;;4213324;28;20272;-74
2022/01/07 02:54:48;;;;;;;5.72;2.70;;;17.50;99.90;;;;;;4213455;28;20214;-74
2022/01/07 02:56:51;;;;;;;3.97;2.25;;;17.50;99.90;;;;;;4212886;28;20226;-74
2022/01/07 02:58:53;;;;;;;4.72;2.33;;;17.50;99.90;;;;;;4202860;28;20296;-74
2022/01/07 03:00:55;;;;;;;4.15;2.65;;;17.50;99.90;;;;;;4197032;28;20276;-74
2022/01/07 03:03:00;;;;;;;4.90;2.72;;;17.50;99.90;;;;;;4196646;28;20227;-74
2022/01/07 03:05:02;;;;;;;5.18;2.70;;;17.40;99.90;;;;;;4196690;28;20261;-74
2022/01/07 03:07:05;;;;;;;3.55;2.45;;;17.50;99.90;;;;;;4196177;28;20215;-74
2022/01/07 03:09:09;;;;;;;3.75;2.50;;;17.50;99.90;;;;;;4190221;28;20253;-74
2022/01/07 03:11:11;;;;;;;5.00;2.47;;;17.50;99.90;;;;;;4213073;28;20215;-74
2022/01/07 03:13:13;;;;;;;5.32;2.30;;;17.50;99.90;;;;;;4198056;28;20215;-74
2022/01/07 03:15:16;;;;;;;3.78;2.35;;;17.50;99.90;;;;;;4194976;28;20215;-74
2022/01/07 03:17:18;;;;;;;4.13;2.50;;;17.40;99.90;;;;;;4196460;28;20223;-74
2022/01/07 03:19:21;;;;;;;3.88;2.42;;;17.40;99.90;;;;;;4193064;28;20235;-74
2022/01/07 03:21:23;;;;;;;5.85;2.47;;;17.40;99.90;;;;;;4195612;28;20219;-74
2022/01/07 03:23:25;;;;;;;4.20;2.60;;;17.40;99.90;;;;;;4195943;28;20219;-74
2022/01/07 03:25:29;;;;;;;3.72;2.30;;;17.40;99.90;;;;;;4195777;28;20219;-74
2022/01/07 03:27:33;;;;;;;4.32;2.50;;;17.40;99.90;;;;;;4196387;28;21010;-73
2022/01/07 03:29:35;;;;;;;5.20;2.60;;;17.40;99.90;;;;;;4196072;28;20215;-74
2022/01/07 03:31:37;;;;;;;4.05;2.65;;;17.40;99.90;;;;;;4195434;28;20235;-73
2022/01/07 03:33:40;;;;;;;4.53;2.10;;;17.40;99.90;;;;;;4192597;28;20227;-74
2022/01/07 03:35:42;;;;;;;5.45;2.58;;;17.40;99.90;;;;;;4195828;28;20268;-74
2022/01/07 03:37:45;;;;;;;5.25;2.92;;;17.40;99.90;;;;;;4196126;28;20207;-74
2022/01/07 03:39:47;;;;;;;4.50;2.20;;;17.40;99.90;;;;;;4195829;28;20852;-74
2022/01/07 03:41:51;;;;;;;3.75;2.30;;;17.40;99.90;;;;;;4196372;28;20219;-74
2022/01/07 03:43:53;;;;;;;4.57;2.28;;;17.40;99.90;;;;;;4196133;28;20215;-74
2022/01/07 03:45:56;;;;;;;4.38;2.50;;;17.40;99.90;;;;;;4195907;28;20214;-74
2022/01/07 03:47:58;;;;;;;5.30;2.45;;;17.40;99.90;;;;;;4204122;28;20217;-74
2022/01/07 03:50:01;;;;;;;4.32;2.50;;;17.40;99.90;;;;;;4203133;28;20215;-74
2022/01/07 03:52:04;;;;;;;3.67;2.45;;;17.30;99.90;;;;;;4195823;28;20264;-74
2022/01/07 03:54:07;;;;;;;3.65;2.38;;;17.40;99.90;;;;;;4195814;28;20260;-74
2022/01/07 03:56:17;;;;;;;3.38;2.47;;;17.40;99.90;;;;;;4195725;28;20674;-74
2022/01/07 03:58:21;;;;;;;4.35;2.40;;;17.40;99.90;;;;;;4189325;28;20275;-74
2022/01/07 04:00:27;;;;;;;3.10;2.08;;;17.40;99.90;;;;;;4204506;28;20614;-74
2022/01/07 04:02:29;;;;;;;3.20;2.20;;;17.40;99.90;;;;;;4212138;28;20222;-74
2022/01/07 04:04:32;;;;;;;3.80;2.42;;;17.40;99.90;;;;;;4212078;28;20271;-74
2022/01/07 04:06:34;;;;;;;5.18;2.13;;;17.30;99.90;;;;;;4206593;28;20219;-74
2022/01/07 04:08:36;;;;;;;3.88;2.53;;;17.30;99.90;;;;;;4195409;28;20268;-74
2022/01/07 04:10:39;;;;;;;3.95;2.60;;;17.30;99.90;;;;;;4195537;28;20222;-74
2022/01/07 04:12:42;;;;;;;3.63;2.20;;;17.30;99.90;;;;;;4195526;28;20215;-74
2022/01/07 04:14:48;;;;;;;4.40;2.38;;;17.30;99.90;;;;;;4195553;28;20257;-74
2022/01/07 04:16:50;;;;;;;4.78;2.28;;;17.30;99.90;;;;;;4210897;28;20226;-74
2022/01/07 04:18:52;;;;;;;3.65;2.15;;;17.30;99.90;;;;;;4212106;28;20271;-74
2022/01/07 04:20:55;;;;;;;3.92;2.30;;;17.30;99.90;;;;;;4211989;28;20214;-73
2022/01/07 04:22:57;;;;;;;4.90;2.50;;;17.30;99.90;;;;;;4211689;28;20214;-73
2022/01/07 04:25:00;;;;;;;3.03;2.10;;;17.30;99.90;;;;;;4194641;28;20603;-73
2022/01/07 04:27:02;;;;;;;4.15;2.40;;;17.30;99.90;;;;;;4195466;28;20741;-74
2022/01/07 04:29:05;;;;;;;3.53;2.38;;;17.30;99.90;;;;;;4194798;28;20536;-74
2022/01/07 04:31:08;;;;;;;5.88;2.58;;;17.30;99.90;;;;;;4195284;28;20234;-74
2022/01/07 04:33:13;;;;;;;3.53;2.50;;;17.30;99.90;;;;;;4208790;28;20260;-74
2022/01/07 04:35:17;;;;;;;3.88;2.60;;;17.30;99.90;;;;;;4193462;28;20215;-73
2022/01/07 04:37:19;;;;;;;4.35;2.13;;;17.30;99.90;;;;;;4195253;28;20230;-73
2022/01/07 04:39:22;;;;;;;3.42;2.25;;;17.30;99.90;;;;;;4195163;28;20231;-74
2022/01/07 04:41:24;;;;;;;3.63;2.30;;;17.30;99.90;;;;;;4198445;28;20296;-73
2022/01/07 04:43:26;;;;;;;4.13;2.45;;;17.30;99.90;;;;;;4195542;28;20211;-74
2022/01/07 04:45:29;;;;;;;3.85;2.30;;;17.30;99.90;;;;;;4195399;28;20675;-74
2022/01/07 04:47:35;;;;;;;3.53;2.20;;;17.30;99.90;;;;;;4194979;28;20260;-74
2022/01/07 04:49:38;;;;;;;3.53;2.40;;;17.30;99.90;;;;;;4194104;28;20211;-73
2022/01/07 04:51:40;;;;;;;3.28;2.35;;;17.30;99.90;;;;;;4195234;28;20219;-73
2022/01/07 04:53:42;;;;;;;2.95;2.28;;;17.30;99.90;;;;;;4195142;28;20257;-73
2022/01/07 04:55:45;;;;;;;4.47;2.40;;;17.30;99.90;;;;;;4195245;28;20268;-73
2022/01/07 04:57:48;;;;;;;3.15;2.33;;;17.30;99.90;;;;;;4193699;28;20219;-73
2022/01/07 04:59:50;;;;;;;4.20;2.35;;;17.30;99.90;;;;;;4194409;28;20320;-73
2022/01/07 05:01:54;;;;;;;3.88;2.45;;;17.30;99.90;;;;;;4192127;28;20246;-73
2022/01/07 05:03:58;;;;;;;4.45;2.53;;;17.20;99.90;;;;;;4195223;28;20241;-73
2022/01/07 05:06:13;;;;;;;3.85;2.60;;;17.20;99.90;;;;;;4194715;28;20214;-73
2022/01/07 05:08:18;;;;;;;3.70;2.42;;;17.30;99.90;;;;;;4194568;28;20257;-73
2022/01/07 05:10:21;;;;;;;4.07;2.38;;;17.20;99.90;;;;;;4195288;28;20215;-73
2022/01/07 05:12:23;;;;;;;3.88;2.50;;;17.20;99.90;;;;;;4194810;28;20219;-73
2022/01/07 05:14:26;;;;;;;4.05;2.83;;;17.20;99.90;;;;;;4195924;28;20227;-73
2022/01/07 05:16:28;;;;;;;3.22;2.17;;;17.20;99.90;;;;;;4210530;28;20214;-73
2022/01/07 05:18:31;;;;;;;3.28;2.35;;;17.20;99.90;;;;;;4214744;28;20222;-73
2022/01/07 05:20:35;;;;;;;4.22;2.75;;;17.20;99.90;;;;;;4215087;28;20227;-73
2022/01/07 05:22:37;;;;;;;5.25;2.67;;;17.20;99.90;;;;;;4214963;28;20222;-73
2022/01/07 05:24:40;;;;;;;3.90;2.72;;;17.20;99.90;;;;;;4214500;28;20272;-73
2022/01/07 05:26:42;;;;;;;4.18;2.35;;;17.20;99.90;;;;;;4214387;28;20571;-73
2022/01/07 05:28:44;;;;;;;6.05;2.50;;;17.20;99.90;;;;;;4214718;28;20667;-73
2022/01/07 05:30:46;;;;;;;4.68;2.47;;;17.20;99.90;;;;;;4214276;28;20226;-73
2022/01/07 05:32:49;;;;;;;4.28;2.58;;;17.20;99.90;;;;;;4198869;28;20950;-73
2022/01/07 05:34:51;;;;;;;4.03;2.50;;;17.20;99.90;;;;;;4197769;28;20729;-73
2022/01/07 05:36:55;;;;;;;4.40;2.50;;;17.20;99.90;;;;;;4197831;28;20219;-73
2022/01/07 05:38:58;;;;;;;4.95;2.25;;;17.20;99.90;;;;;;4197515;28;20215;-73
2022/01/07 05:41:00;;;;;;;3.95;2.47;;;17.20;99.90;;;;;;4197573;28;20260;-73
2022/01/07 05:43:02;;;;;;;4.00;2.70;;;17.20;99.90;;;;;;4198008;28;20268;-73
2022/01/07 05:45:05;;;;;;;4.35;2.53;;;17.20;99.90;;;;;;4205641;28;20218;-73
2022/01/07 05:47:08;;;;;;;4.18;2.53;;;17.10;99.90;;;;;;4197834;28;20222;-73
2022/01/07 05:49:10;;;;;;;3.80;2.53;;;17.10;99.90;;;;;;4198404;28;20222;-73
2022/01/07 05:51:13;;;;;;;4.05;2.65;;;17.10;99.90;;;;;;4200089;28;20263;-73
2022/01/07 05:53:17;;;;;;;3.05;2.10;;;17.10;99.90;;;;;;4198339;28;20268;-73
2022/01/07 05:55:19;;;;;;;2.72;2.15;;;17.10;99.90;;;;;;4201990;28;20214;-73
2022/01/07 05:57:21;;;;;;;3.92;2.47;;;17.00;99.90;;;;;;4202337;28;20264;-73
2022/01/07 05:59:24;;;;;;;4.60;2.65;;;17.10;99.90;;;;;;4203254;28;20271;-73
2022/01/07 06:01:26;;;;;;;3.15;2.30;;;17.20;99.90;;;;;;4205510;28;20219;-73
2022/01/07 06:03:28;;;;;;;4.38;2.58;;;17.20;99.90;;;;;;4203643;28;20272;-73
2022/01/07 06:05:31;;;;;;;3.70;2.40;;;17.20;99.90;;;;;;4199845;28;20226;-73
2022/01/07 06:07:33;;;;;;;3.85;2.25;;;17.20;99.90;;;;;;4206006;28;20275;-73
2022/01/07 06:09:37;;;;;;;3.38;2.28;;;17.20;99.90;;;;;;4205507;28;20248;-73
2022/01/07 06:11:39;;;;;;;5.95;2.55;;;17.30;99.90;;;;;;4202650;28;20699;-73
2022/01/07 06:13:41;;;;;;;5.50;2.92;;;17.30;99.90;;;;;;4202657;28;20275;-73
2022/01/07 06:15:44;;;;;;;4.50;2.72;;;17.30;99.90;;;;;;4202250;28;20218;-73
2022/01/07 06:17:46;;;;;;;3.22;2.10;;;17.40;99.90;;;;;;4204003;28;20275;-73
2022/01/07 06:19:48;;;;;;;4.28;2.50;;;17.40;99.90;;;;;;4204507;28;20218;-73
2022/01/07 06:21:51;;;;;;;4.20;2.17;;;17.40;99.90;;;;;;4203034;28;20284;-73
2022/01/07 06:23:53;;;;;;;3.50;2.13;;;17.40;99.90;;;;;;4200323;28;20227;-73
2022/01/07 06:25:57;;;;;;;4.65;2.58;;;17.50;99.90;;;;;;4205257;28;20269;-73
2022/01/07 06:27:59;;;;;;;5.10;2.70;;;17.40;99.90;;;;;;4202769;28;20252;-73
2022/01/07 06:30:01;;;;;;;4.38;2.40;;;17.50;99.90;;;;;;4201113;28;20264;-73
2022/01/07 06:32:05;;;;;;;4.25;2.60;;;17.50;99.90;;;;;;4199323;28;20214;-73
2022/01/07 06:34:07;;;;;;;4.32;2.13;;;17.50;99.90;;;;;;4199492;28;20210;-73
2022/01/07 06:36:09;;;;;;;4.40;2.67;;;17.50;99.90;;;;;;4200229;28;20263;-73
2022/01/07 06:38:12;;;;;;;3.83;2.47;;;17.50;99.90;;;;;;4201875;28;20621;-73
2022/01/07 06:40:14;;;;;;;3.38;2.60;;;17.50;99.90;;;;;;4202418;28;20740;-73
2022/01/07 06:42:18;;;;;;;3.45;2.50;;;17.50;99.90;;;;;;4199914;28;20227;-73
2022/01/07 06:44:20;;;;;;;3.22;2.25;;;17.50;99.90;;;;;;4201136;28;20211;-73
2022/01/07 06:46:23;;;;;;;4.18;2.30;;;17.60;99.90;;;;;;4199447;28;20272;-73
2022/01/07 06:48:25;;;;;;;3.45;2.30;;;17.60;99.90;;;;;;4202357;28;20215;-73
2022/01/07 06:50:27;;;;;;;3.40;2.15;;;17.60;99.90;;;;;;4198134;28;20277;-73
2022/01/07 06:52:29;;;;;;;3.88;2.58;;;17.60;99.90;;;;;;4200114;28;20223;-73
2022/01/07 06:54:32;;;;;;;4.60;2.42;;;17.60;99.90;;;;;;4201957;28;20271;-73
2022/01/07 06:56:34;;;;;;;3.75;2.33;;;17.60;99.90;;;;;;4200241;28;20211;-73
2022/01/07 06:58:38;;;;;;;5.20;2.35;;;17.60;99.90;;;;;;4203836;28;20261;-73
2022/01/07 07:00:40;;;;;;;4.15;2.30;;;17.70;99.90;;;;;;4204246;28;20226;-73
2022/01/07 07:02:43;;;;;;;3.45;2.33;;;17.70;99.90;;;;;;4203680;28;20280;-73
2022/01/07 07:04:46;;;;;;;3.55;2.20;;;17.70;99.90;;;;;;4203805;28;20215;-73
2022/01/07 07:06:48;;;;;;;2.72;2.13;;;17.70;99.90;;;;;;4201974;28;20276;-73
2022/01/07 07:08:51;;;;;;;4.50;2.47;;;17.70;99.90;;;;;;4203934;28;20275;-73
2022/01/07 07:10:53;;;;;;;3.58;2.10;;;17.70;99.90;;;;;;4201448;28;20291;-73
2022/01/07 07:12:55;;;;;;;3.30;2.08;;;17.70;99.90;;;;;;4204719;28;20327;-73
2022/01/07 07:14:59;;;;;;;2.92;2.20;;;17.70;99.90;;;;;;4201410;28;20263;-73
2022/01/07 07:17:02;;;;;;;4.05;2.10;;;17.70;99.90;;;;;;4204763;28;20210;-73
2022/01/07 07:19:04;;;;;;;3.20;1.98;;;17.70;99.90;;;;;;4204701;28;20264;-73
2022/01/07 07:21:06;;;;;;;2.65;1.92;;;17.70;99.90;;;;;;4204784;28;20238;-73
2022/01/07 07:23:09;;;;;;;3.30;1.90;;;17.70;99.90;;;;;;4204506;28;20253;-73
2022/01/07 07:25:12;;;;;;;3.15;1.92;;;17.80;99.90;;;;;;4203750;28;20673;-73
2022/01/07 07:27:14;;;;;;;3.50;1.80;;;17.70;99.90;;;;;;4203607;28;20256;-73
2022/01/07 07:29:16;;;;;;;3.80;2.45;;;17.70;99.90;;;;;;4206406;28;20276;-73
2022/01/07 07:31:20;;;;;;;3.08;2.20;;;17.80;99.90;;;;;;4202028;28;20230;-73
2022/01/07 07:33:54;;;;;;;2.70;2.05;;;17.80;99.90;;;;;;4204176;28;20671;-73
2022/01/07 07:38:17;;;;;;;3.72;2.42;;;17.80;99.90;;;;;;4201861;28;20188;-73
2022/01/07 07:40:19;;;;;;;3.15;2.05;;;17.80;99.90;;;;;;4197052;28;20215;-73
2022/01/07 07:42:22;;;;;;;3.00;1.90;;;17.80;99.90;;;;;;4199967;28;20211;-73
2022/01/07 07:44:24;;;;;;;2.95;1.90;;;17.80;99.90;;;;;;4198481;28;20219;-73
2022/01/07 07:46:30;;;;;;;3.47;2.10;;;17.80;99.90;;;;;;4202128;28;20249;-73
2022/01/07 07:48:33;;;;;;;3.00;1.83;;;17.70;99.90;;;;;;4198528;28;20248;-73
2022/01/07 07:50:35;;;;;;;4.97;2.38;;;17.70;99.90;;;;;;4202889;28;20211;-73
2022/01/07 07:52:39;;;;;;;2.95;1.77;;;17.70;99.90;;;;;;4201007;28;20223;-73
2022/01/07 07:54:42;;;;;;;3.05;1.75;;;17.80;99.90;;;;;;4198089;28;20659;-73
2022/01/07 07:56:44;;;;;;;3.72;2.00;;;17.80;99.90;;;;;;4199803;28;20225;-73
2022/01/07 07:58:47;;;;;;;3.28;2.15;;;17.70;99.90;;;;;;4200644;28;20211;-73
2022/01/07 08:00:50;;;;;;;3.50;2.00;;;17.70;99.90;;;;;;4202095;28;20741;-73
2022/01/07 08:02:53;;;;;;;4.25;2.10;;;17.70;99.90;;;;;;4202664;28;20267;-73
2022/01/07 08:04:56;;;;;;;3.60;2.00;;;17.80;99.90;;;;;;4200891;28;20671;-73
2022/01/07 08:06:58;;;;;;;5.57;2.40;;;17.80;99.90;;;;;;4202237;28;20219;-73
2022/01/07 08:11:17;;;;;;;2.90;1.70;;;17.70;99.90;;;;;;4130894;28;20214;-73
2022/01/07 08:13:28;;;;;;;3.58;1.95;;;17.70;99.90;;;;;;4131084;28;20217;-73
2022/01/07 08:17:50;;;;;;;3.67;2.15;;;17.80;99.90;;;;;;4201732;28;20186;-73
2022/01/07 08:19:54;;;;;;;3.05;1.77;;;17.80;99.90;;;;;;4198484;28;20639;-73
2022/01/07 08:21:56;;;;;;;3.28;1.75;;;17.80;99.90;;;;;;4193897;28;20239;-73
2022/01/07 08:23:59;;;;;;;3.03;1.90;;;17.80;99.90;;;;;;4196736;28;20264;-73
2022/01/07 08:26:04;;;;;;;3.92;1.83;;;17.80;99.90;;;;;;4198643;28;20308;-73
2022/01/07 08:28:07;;;;;;;2.40;1.67;;;17.80;99.90;;;;;;4197519;28;20265;-73
2022/01/07 08:30:15;;;;;;;4.07;2.10;;;17.80;99.90;;;;;;4198296;28;21003;-73
2022/01/07 08:34:57;;;;;;;3.05;1.92;;;17.80;99.90;;;;;;4197258;28;20206;-73
2022/01/07 08:37:04;;;;;;;3.90;1.95;;;17.80;99.90;;;;;;4196504;28;20679;-73
2022/01/07 08:39:09;;;;;;;6.03;1.70;;;17.90;99.90;;;;;;4191263;28;20222;-73
2022/01/07 08:41:13;;;;;;;2.50;1.67;;;17.90;99.90;;;;;;4197027;28;20273;-73
2022/01/07 08:43:15;;;;;;;2.40;1.73;;;17.80;99.90;;;;;;4196676;28;20983;-73
2022/01/07 08:45:17;;;;;;;2.95;1.60;;;17.90;99.90;;;;;;4198217;28;20211;-73
2022/01/07 08:47:21;;;;;;;2.35;1.73;;;17.90;99.90;;;;;;4198952;28;20296;-73
2022/01/07 08:49:24;;;;;;;2.13;1.63;;;17.90;99.90;;;;;;4204757;28;20264;-73
2022/01/07 08:51:28;;;;;;;2.67;1.80;;;17.90;99.90;;;;;;4204631;28;20214;-73
2022/01/07 08:53:33;;;;;;;2.70;1.48;;;17.90;99.90;;;;;;4205206;28;20659;-73
2022/01/07 08:55:35;;;;;;;3.10;1.92;;;17.90;99.90;;;;;;4203792;28;20226;-73
2022/01/07 08:57:37;;;;;;;2.75;1.52;;;17.90;99.90;;;;;;4206045;28;20226;-73
2022/01/07 08:59:40;;;;;;;3.55;1.88;;;17.90;99.90;;;;;;4206227;28;20685;-73
2022/01/07 09:01:42;;;;;;;2.45;1.63;;;17.90;99.90;;;;;;4209548;28;20690;-73
2022/01/07 09:03:45;;;;;;;3.88;1.80;;;17.90;99.90;;;;;;4179411;28;20258;-73
2022/01/07 09:05:47;;;;;;;4.35;1.88;;;17.90;99.90;;;;;;4214817;28;20218;-73
2022/01/07 09:07:49;;;;;;;2.67;1.77;;;17.90;99.90;;;;;;4214882;28;20662;-73
2022/01/07 09:09:53;;;;;;;2.67;1.77;;;17.90;99.90;;;;;;4215167;28;20980;-73
2022/01/07 09:11:55;;;;;;;3.17;1.83;;;17.90;99.90;;;;;;4215027;28;20599;-73
2022/01/07 09:13:58;;;;;;;3.03;1.60;;;17.90;99.90;;;;;;4197391;28;20336;-73
2022/01/07 09:16:01;;;;;;;3.58;1.80;;;17.90;99.90;;;;;;4206634;28;20256;-73
2022/01/07 09:18:09;;;;;;;3.30;1.58;;;18.00;99.90;;;;;;4214776;28;20218;-73
2022/01/07 09:20:13;;;;;;;2.70;1.63;;;17.90;99.90;;;;;;4214555;28;20210;-73
2022/01/07 09:22:15;;;;;;;2.92;1.52;;;17.90;99.90;;;;;;4197470;28;20288;-73
2022/01/07 09:24:18;;;;;;;2.92;1.70;;;18.00;99.90;;;;;;4197984;28;20227;-73
2022/01/07 09:26:22;;;;;;;2.50;1.25;;;17.90;99.90;;;;;;4197843;28;20219;-73
2022/01/07 09:28:24;;;;;;;3.75;1.63;;;18.00;99.90;;;;;;4198098;28;20215;-73
2022/01/07 09:30:27;;;;;;;3.28;1.60;;;18.00;99.90;;;;;;4196235;28;20288;-73
2022/01/07 09:32:30;;;;;;;3.67;1.60;;;18.00;99.90;;;;;;4198091;28;20614;-73
2022/01/07 09:34:51;;;;;;;3.05;1.77;;;18.00;99.90;;;;;;4198073;28;20256;-73
2022/01/07 09:36:53;;;;;;;2.50;1.65;;;18.00;99.90;;;;;;4197061;28;20664;-73
2022/01/07 09:38:55;;;;;;;2.22;1.50;;;18.00;99.90;;;;;;4194815;28;20216;-73
2022/01/07 09:40:59;;;;;;;2.95;1.52;;;18.00;99.90;;;;;;4197270;28;20215;-73
2022/01/07 09:43:06;;;;;;;2.35;1.50;;;18.00;99.90;;;;;;4197857;28;20281;-73
2022/01/07 09:45:09;;;;;;;2.65;1.33;;;18.00;99.90;;;;;;4197937;28;20602;-73
2022/01/07 09:47:13;;;;;;;2.55;1.60;;;18.00;99.90;;;;;;4195880;28;20227;-73
2022/01/07 09:49:15;;;;;;;3.30;1.48;;;18.00;99.90;;;;;;4197320;28;20265;-73
2022/01/07 09:51:18;;;;;;;2.35;1.50;;;18.00;99.90;;;;;;4197567;28;20280;-73
2022/01/07 09:53:20;;;;;;;3.15;1.70;;;18.00;99.90;;;;;;4197624;28;20241;-73
2022/01/07 09:55:23;;;;;;;3.20;1.77;;;18.00;99.90;;;;;;4197460;28;20227;-73
2022/01/07 09:57:26;;;;;;;2.53;1.30;;;17.90;99.90;;;;;;4197773;28;20207;-73
2022/01/07 09:59:29;;;;;;;3.72;1.50;;;18.00;99.90;;;;;;4196560;28;20223;-73
2022/01/07 10:01:32;;;;;;;2.97;1.70;;;18.00;99.90;;;;;;4197311;28;20265;-73
2022/01/07 10:03:39;;;;;;;2.28;1.25;;;18.00;99.90;;;;;;4195369;28;20219;-73
2022/01/07 10:05:46;;;;;;;2.60;1.70;;;18.00;99.90;;;;;;4197181;28;20215;-73
2022/01/07 10:07:48;;;;;;;2.63;1.63;;;18.10;99.90;;;;;;4214105;28;20745;-73
2022/01/07 10:10:06;;;;;;;5.70;1.80;;;18.10;99.90;;;;;;4213848;28;20766;-74
2022/01/07 10:12:10;;;;;;;2.60;1.45;;;18.00;99.90;;;;;;4214283;28;20248;-73
2022/01/07 10:14:18;;;;;;;1.75;1.30;;;18.10;99.90;;;;;;4214392;28;20218;-73
2022/01/07 10:16:23;;;;;;;4.05;1.65;;;18.10;99.90;;;;;;4202925;28;20222;-73
2022/01/07 10:18:37;;;;;;;2.63;1.60;;;18.10;99.90;;;;;;4197373;28;20223;-73
2022/01/07 10:20:42;;;;;;;2.95;1.65;;;18.10;99.90;;;;;;4195287;28;20215;-73
2022/01/07 10:22:53;;;;;;;3.15;1.65;;;18.10;99.90;;;;;;4197074;28;20235;-73
2022/01/07 10:24:57;;;;;;;2.40;1.40;;;18.10;99.90;;;;;;4196773;28;20215;-73
2022/01/07 10:27:10;;;;;;;2.10;1.27;;;18.10;99.90;;;;;;4197214;28;20336;-73
2022/01/07 10:29:27;;;;;;;2.08;1.45;;;18.10;99.90;;;;;;4197023;28;20223;-73
2022/01/07 10:31:33;;;;;;;2.92;1.52;;;18.10;99.90;;;;;;4210944;28;20280;-73
2022/01/07 10:33:40;;;;;;;3.67;1.30;;;18.10;99.90;;;;;;4213704;28;20214;-73
2022/01/07 10:35:43;;;;;;;4.18;1.60;;;18.20;99.90;;;;;;4206893;28;20269;-73
2022/01/07 10:37:56;;;;;;;3.50;1.65;;;18.20;99.90;;;;;;4197420;28;20264;-73
2022/01/07 10:39:59;;;;;;;2.88;1.50;;;18.10;99.90;;;;;;4213659;28;20616;-73
2022/01/07 10:42:01;;;;;;;3.30;1.50;;;18.20;99.90;;;;;;4213155;28;20255;-73
2022/01/07 10:44:08;;;;;;;3.03;1.67;;;18.20;99.90;;;;;;4213280;28;20688;-73
2022/01/07 10:46:24;;;;;;;2.75;1.40;;;18.10;99.90;;;;;;4213653;28;20268;-73
2022/01/07 10:48:38;;;;;;;2.95;1.70;;;18.10;99.90;;;;;;4213343;28;20219;-73
2022/01/07 10:50:42;;;;;;;2.55;1.52;;;18.10;99.90;;;;;;4213385;28;20279;-73
2022/01/07 10:52:45;;;;;;;2.63;1.50;;;18.10;99.90;;;;;;4213823;28;20267;-73